Flight Track Log - Related Links

Times and Time Zones

All times are in EST time to prevent confusion due to time zone crossing. See the AWE766 flight status page for this flight to view local times or setup timezone preferences in your user account.

Time Position Orientation Groundspeed Altitude Reporting Facility
EST Latitude Longitude Course Direction KTS MPH feet Rate Location/Type
05:39PM 33.8132 -118.0167 North  Level FlightAware Approximate
05:40PM 33.9128 -117.9139 36° Northeast  Level FlightAware Approximate
05:40PM 33.7986 -118.5424 36° Northeast 289 333 6,000  Level FlightAware ADS-B
05:40PM 33.7764 -118.5387 172° South 292 336 6,600 1,895 Climbing FlightAware ADS-B
05:40PM 33.7471 -118.5339 172° South 297 342 7,200 1,714 Climbing FlightAware ADS-B
05:41PM 33.7190 -118.5289 172° South 307 353 7,800 1,453 Climbing FlightAware ADS-B
05:43PM 33.6312 -118.3115 116° Southeast 359 413 11,100 1,350 Climbing FlightAware ADS-B
05:45PM 33.6975 -118.0921 70° East 374 430 14,100 1,281 Climbing FlightAware ADS-B
05:46PM 33.7599 -118.0647 20° North 391 450 14,900 1,263 Climbing FlightAware ADS-B
05:46PM 33.7925 -118.0452 26° Northeast 399 459 15,300 1,742 Climbing FlightAware ADS-B
05:47PM 33.8560 -117.9885 37° Northeast 399 459 16,700 1,610 Climbing FlightAware ADS-B
05:48PM 33.9079 -117.9417 37° Northeast 408 470 17,500 1,317 Climbing FlightAware ADS-B
05:48PM 33.9798 -117.8766 37° Northeast 416 479 18,500 1,462 Climbing FlightAware ADS-B
05:49PM 34.0303 -117.8307 37° Northeast 418 481 19,400 1,169 Climbing FlightAware ADS-B
05:50PM 34.0967 -117.7665 39° Northeast 431 496 20,000 1,185 Climbing FlightAware ADS-B
05:50PM 34.1492 -117.6961 48° Northeast 431 496 21,000 1,259 Climbing FlightAware ADS-B
05:51PM 34.2020 -117.6247 48° Northeast 439 505 21,700 857 Climbing FlightAware ADS-B
05:51PM 34.2520 -117.5568 48° Northeast 445 512 22,100 917 Climbing FlightAware ADS-B
05:52PM 34.2646 -117.5397 48° Northeast 451 519 22,800 988 Climbing FlightAware ADS-B (KBNG)
05:53PM 34.3695 -117.3971 48° Northeast 457 526 23,500 805 Climbing FlightAware ADS-B
05:53PM 34.4179 -117.3309 48° Northeast 463 533 23,900 857 Climbing FlightAware ADS-B
05:54PM 34.4798 -117.2461 48° Northeast 467 537 24,600 797 Climbing FlightAware ADS-B
05:56PM 34.5983 -117.0834 48° Northeast 478 550 25,600 683 Climbing FlightAware ADS-B
05:56PM 34.6548 -117.0055 49° Northeast 484 557 26,000 740 Climbing FlightAware ADS-B
05:57PM 34.7115 -116.9270 49° Northeast 484 557 26,500 766 Climbing FlightAware ADS-B
06:01PM 35.0860 -116.4241 48° Northeast 482 555 29,600 737 Climbing FlightAware ADS-B
06:02PM 35.1588 -116.3330 46° Northeast 483 556 30,100 742 Climbing FlightAware ADS-B
06:02PM 35.2251 -116.2499 46° Northeast 474 545 30,700 805 Climbing FlightAware ADS-B
06:03PM 35.2853 -116.1743 46° Northeast 468 539 31,200 732 Climbing FlightAware ADS-B
06:04PM 35.3512 -116.0914 46° Northeast 466 536 31,700 494 Climbing FlightAware ADS-B
06:04PM 35.4147 -116.0112 46° Northeast 468 539 31,900 380 Climbing FlightAware ADS-B
06:05PM 35.4703 -115.9408 46° Northeast 468 539 32,200 450 Climbing FlightAware ADS-B
06:06PM 35.5368 -115.8564 46° Northeast 468 539 32,500 414 Climbing FlightAware ADS-B
06:07PM 35.6030 -115.7723 46° Northeast 468 539 32,800 361 Climbing FlightAware ADS-B
06:07PM 35.6627 -115.6963 46° Northeast 468 539 33,000 152 Climbing FlightAware ADS-B
06:08PM 35.7231 -115.6192 46° Northeast 467 537 33,000  Level FlightAware ADS-B
06:09PM 35.7877 -115.5364 46° Northeast 473 544 33,000  Level FlightAware ADS-B
06:09PM 35.8434 -115.4649 46° Northeast 469 540 33,000  Level FlightAware ADS-B
06:10PM 35.9157 -115.3719 46° Northeast 472 543 33,000 -383 Level FlightAware ADS-B
06:11PM 35.9858 -115.2814 46° Northeast 472 543 32,400 -918 Descending FlightAware ADS-B
06:11PM 36.0428 -115.1981 50° Northeast 485 558 31,700 -975 Descending FlightAware ADS-B
06:12PM 36.0924 -115.1010 58° Northeast 497 572 31,100 -472 Descending FlightAware ADS-B
06:13PM 36.1365 -114.9763 66° East 500 575 31,000 -70 Descending FlightAware ADS-B
06:13PM 36.1678 -114.8748 69° East 497 572 31,000  Level FlightAware ADS-B
06:15PM 36.2185 -114.7097 69° East 499 574 31,000  Level FlightAware ADS-B
06:15PM 36.2566 -114.5848 69° East 499 574 31,000  Level FlightAware ADS-B
06:16PM 36.2916 -114.4699 69° East 499 574 31,000  Level FlightAware ADS-B
06:17PM 36.3227 -114.3667 69° East 494 568 31,000  Level FlightAware ADS-B
06:17PM 36.3582 -114.2489 69° East 498 573 31,000  Level FlightAware ADS-B
06:18PM 36.3933 -114.1320 70° East 508 585 31,000  Level FlightAware ADS-B
06:19PM 36.4238 -114.0299 70° East 510 587 31,000  Level FlightAware ADS-B
06:19PM 36.4610 -113.9051 70° East 508 585 31,000  Level FlightAware ADS-B
06:20PM 36.4941 -113.7929 70° East 502 578 31,000  Level FlightAware ADS-B
06:21PM 36.5254 -113.6868 70° East 501 577 31,000  Level FlightAware ADS-B
06:22PM 36.5581 -113.5756 70° East 501 577 31,000  Level FlightAware ADS-B
06:22PM 36.5966 -113.4440 70° East 502 578 31,000  Level FlightAware ADS-B
06:23PM 36.6249 -113.3469 70° East 504 580 31,000  Level FlightAware ADS-B
06:24PM 36.6517 -113.2545 70° East 508 585 31,000  Level FlightAware ADS-B
06:24PM 36.6958 -113.1024 70° East 507 583 31,000  Level FlightAware ADS-B
06:25PM 36.7246 -113.0015 70° East 507 583 31,000  Level FlightAware ADS-B
06:26PM 36.7602 -112.8776 70° East 511 588 31,000  Level FlightAware ADS-B
06:26PM 36.7945 -112.7571 70° East 510 587 31,000  Level FlightAware ADS-B
06:27PM 36.8238 -112.6544 70° East 514 592 31,000  Level FlightAware ADS-B
06:28PM 36.8597 -112.5276 70° East 514 592 31,000  Level FlightAware ADS-B
06:29PM 36.8936 -112.4074 71° East 515 593 31,000  Level FlightAware ADS-B
06:29PM 36.9167 -112.3247 71° East 519 597 31,000  Level FlightAware ADS-B
06:30PM 36.9567 -112.1821 71° East 512 589 31,000  Level FlightAware ADS-B
06:31PM 36.9887 -112.0673 71° East 512 589 31,000  Level FlightAware ADS-B
06:31PM 37.0131 -111.9794 71° East 513 590 31,000  Level FlightAware ADS-B
06:32PM 37.0611 -111.8055 71° East 515 593 31,000  Level FlightAware ADS-B
06:33PM 37.1071 -111.6379 71° East 513 590 31,000  Level FlightAware ADS-B
06:34PM 37.1576 -111.4526 71° East 511 588 31,000  Level FlightAware ADS-B
06:35PM 37.2015 -111.2903 71° East 511 588 31,000  Level FlightAware ADS-B
06:36PM 37.2530 -111.0982 71° East 511 588 31,000  Level FlightAware ADS-B
06:37PM 37.2980 -110.9298 71° East 509 586 31,000  Level FlightAware ADS-B
06:38PM 37.3445 -110.7543 72° East 509 586 31,000  Level FlightAware ADS-B
06:40PM 37.3970 -110.5542 72° East 509 586 31,000  Level FlightAware ADS-B
06:41PM 37.4404 -110.3880 72° East 510 587 31,000  Level FlightAware ADS-B
06:42PM 37.4833 -110.2227 72° East 513 590 31,000 61 Level FlightAware ADS-B
06:42PM 37.5138 -110.1048 72° East 512 589 31,100 684 Climbing FlightAware ADS-B (KGUC)
06:43PM 37.5651 -109.9045 72° East 495 570 32,300 763 Climbing FlightAware ADS-B
06:44PM 37.5947 -109.7884 72° East 498 573 32,600 439 Climbing FlightAware ADS-B
06:45PM 37.6242 -109.6724 72° East 497 572 32,900 312 Climbing FlightAware ADS-B
06:45PM 37.6496 -109.5719 72° East 501 577 33,000 71 Climbing FlightAware ADS-B
06:46PM 37.6825 -109.4409 72° East 507 583 33,000  Level FlightAware ADS-B
06:47PM 37.7109 -109.3272 72° East 505 581 33,000  Level FlightAware ADS-B
06:48PM 37.7387 -109.2157 72° East 506 582 33,000  Level FlightAware ADS-B
06:48PM 37.7669 -109.1019 73° East 508 585 33,000  Level FlightAware ADS-B
06:49PM 37.7967 -108.9813 73° East 510 587 33,000  Level FlightAware ADS-B (KGUC)
06:50PM 37.8209 -108.8680 75° East 514 592 33,000  Level FlightAware ADS-B (KGUC)
06:50PM 37.8388 -108.7728 77° East 515 593 33,000  Level FlightAware ADS-B
06:51PM 37.8580 -108.6702 77° East 511 588 33,000  Level FlightAware ADS-B
06:51PM 37.8759 -108.5749 77° East 508 585 33,000  Level FlightAware ADS-B (KGUC)
06:52PM 37.8912 -108.4929 77° East 508 585 33,000  Level FlightAware ADS-B
06:52PM 37.9132 -108.3739 77° East 510 587 33,000  Level FlightAware ADS-B
06:53PM 37.9285 -108.2907 77° East 514 592 33,000  Level FlightAware ADS-B (KGUC)
06:53PM 37.9470 -108.1902 77° East 514 592 33,000  Level FlightAware ADS-B
06:54PM 37.9691 -108.0678 77° East 514 592 33,000  Level FlightAware ADS-B
06:55PM 37.9867 -107.9705 77° East 511 588 33,000  Level FlightAware ADS-B
06:55PM 38.0031 -107.8796 77° East 510 587 33,000  Level FlightAware ADS-B
06:56PM 38.0188 -107.7925 77° East 514 592 33,000  Level FlightAware ADS-B
06:56PM 38.0345 -107.7048 77° East 516 594 33,000  Level FlightAware ADS-B
06:57PM 38.0523 -107.6048 77° East 517 595 33,000  Level FlightAware ADS-B
06:57PM 38.0691 -107.5099 77° East 511 588 33,000  Level FlightAware ADS-B
06:58PM 38.0844 -107.4227 77° East 507 583 33,000  Level FlightAware ADS-B
06:58PM 38.0990 -107.3394 77° East 506 582 33,000  Level FlightAware ADS-B
06:59PM 38.1149 -107.2491 77° East 511 588 33,000  Level FlightAware ADS-B
06:59PM 38.1328 -107.1455 78° East 515 593 33,000  Level FlightAware ADS-B
07:00PM 38.1482 -107.0562 78° East 517 595 33,000  Level FlightAware ADS-B (KGUC)
07:00PM 38.1665 -106.9498 78° East 517 595 33,000  Level FlightAware ADS-B
07:01PM 38.1828 -106.8544 78° East 514 592 33,000  Level FlightAware ADS-B
07:02PM 38.1966 -106.7735 78° East 511 588 33,000  Level FlightAware ADS-B (KGUC)
07:02PM 38.2142 -106.6701 78° East 510 587 33,000  Level FlightAware ADS-B
07:03PM 38.2343 -106.5502 78° East 510 587 33,000  Level FlightAware ADS-B
07:04PM 38.2720 -106.3244 78° East 516 594 33,000  Level FlightAware ADS-B
07:05PM 38.2913 -106.2075 78° East 515 593 33,000  Level FlightAware ADS-B
07:05PM 38.3061 -106.1165 78° East 508 585 33,000  Level FlightAware ADS-B
07:06PM 38.3204 -106.0297 78° East 508 585 33,000  Level FlightAware ADS-B
07:06PM 38.3424 -105.8947 78° East 513 590 33,000  Level FlightAware ADS-B (KEIK)
07:07PM 38.3603 -105.7831 78° East 511 588 33,000  Level FlightAware ADS-B (KEIK)
07:08PM 38.3770 -105.6787 78° East 503 579 33,000  Level FlightAware ADS-B
07:09PM 38.4003 -105.5322 78° East 507 583 33,000  Level FlightAware ADS-B (KEIK)
07:09PM 38.4189 -105.4146 79° East 505 581 33,000  Level FlightAware ADS-B (KEIK)
07:10PM 38.4369 -105.2998 79° East 506 582 33,000  Level FlightAware ADS-B (KEIK)
07:11PM 38.4554 -105.1811 79° East 510 587 33,000  Level FlightAware ADS-B (KEIK)
07:11PM 38.4744 -105.0574 79° East 511 588 33,000 74 Level FlightAware ADS-B (KEIK)
07:12PM 38.4923 -104.9411 79° East 509 586 33,100  Climbing FlightAware ADS-B (KEIK)
07:13PM 38.5110 -104.8183 79° East 509 586 33,000 -74 Descending FlightAware ADS-B (KEIK)
07:13PM 38.5285 -104.7024 79° East 508 585 33,000  Level FlightAware ADS-B (KEIK)
07:14PM 38.5454 -104.5903 79° East 507 583 33,000  Level FlightAware ADS-B
07:15PM 38.5637 -104.4680 79° East 510 587 33,000  Level FlightAware ADS-B (KEIK)
07:15PM 38.5822 -104.3433 79° East 510 587 33,000  Level FlightAware ADS-B (KEIK)
07:16PM 38.5988 -104.2298 79° East 504 580 33,000  Level FlightAware ADS-B (KEIK)
07:16PM 38.6098 -104.1547 79° East 506 582 33,000  Level FlightAware ADS-B (ZSPD / PVG)
07:17PM 38.6250 -104.0503 79° East 509 586 33,000  Level FlightAware ADS-B (KEIK)
07:18PM 38.6395 -103.9492 80° East 509 586 33,000  Level FlightAware ADS-B (ZSPD / PVG)
07:18PM 38.6583 -103.8180 80° East 508 585 33,000  Level FlightAware ADS-B
07:19PM 38.6760 -103.6935 80° East 507 583 33,000  Level FlightAware ADS-B
07:20PM 38.6913 -103.5849 80° East 505 581 33,000  Level FlightAware ADS-B (ZSPD / PVG)
07:20PM 38.7119 -103.4373 80° East 505 581 33,000  Level FlightAware ADS-B (KEIK)
07:21PM 38.7288 -103.3147 80° East 504 580 33,000  Level FlightAware ADS-B (KEIK)
07:22PM 38.7418 -103.2195 80° East 502 578 33,000  Level FlightAware ADS-B (KEIK)
07:22PM 38.7529 -103.1389 80° East 503 579 33,000  Level FlightAware ADS-B
07:23PM 38.7742 -102.9815 80° East 502 578 33,000  Level FlightAware ADS-B
07:24PM 38.7877 -102.8806 80° East 501 577 33,000  Level FlightAware ADS-B (ZSPD / PVG)
07:24PM 38.8056 -102.7461 80° East 502 578 33,000  Level FlightAware ADS-B (KEIK)
07:25PM 38.8201 -102.6364 80° East 502 578 33,000  Level FlightAware ADS-B (ZSPD / PVG)
07:26PM 38.8337 -102.5331 80° East 502 578 33,000  Level FlightAware ADS-B (KEIK)
07:26PM 38.8470 -102.4316 80° East 503 579 33,000  Level FlightAware ADS-B (KEIK)
07:27PM 38.8588 -102.3404 81° East 504 580 33,000  Level FlightAware ADS-B
07:27PM 38.8758 -102.2077 81° East 504 580 33,000  Level FlightAware ADS-B
07:28PM 38.8865 -102.1238 81° East 505 581 33,000  Level FlightAware ADS-B
07:29PM 38.9024 -101.9985 81° East 506 582 33,000  Level FlightAware ADS-B (KEIK)
07:30PM 38.8895 -102.0998 261° West 506 582 33,000  Level FlightAware ADS-B (ZSPD / PVG)
07:31PM 38.9361 -101.7296 81° East 506 582 33,000  Level FlightAware ADS-B (ZSPD / PVG)
07:32PM 38.9700 -101.4531 81° East 505 581 33,000  Level FlightAware ADS-B
07:32PM 38.9773 -101.3934 81° East 506 582 33,000  Level FlightAware ADS-B (ZSPD / PVG)
07:33PM 38.9967 -101.2323 81° East 507 583 33,000  Level FlightAware ADS-B
07:34PM 39.0124 -101.0999 81° East 507 583 33,000  Level FlightAware ADS-B (ZSPD / PVG)
07:34PM 39.0276 -100.9701 81° East 506 582 33,000  Level FlightAware ADS-B
07:35PM 39.0440 -100.8307 81° East 505 581 33,000  Level FlightAware ADS-B
07:36PM 39.0582 -100.7072 82° East 505 581 33,000  Level FlightAware ADS-B
07:37PM 39.0737 -100.5716 82° East 503 579 33,000  Level FlightAware ADS-B
07:37PM 39.0881 -100.4439 82° East 505 581 33,000  Level FlightAware ADS-B
07:38PM 39.1003 -100.3347 82° East 505 581 33,000  Level FlightAware ADS-B
07:39PM 39.1211 -100.1364 82° East 504 580 33,000  Level Kansas City Center
07:40PM 39.1403 -99.9644 82° East 505 581 33,000  Level Kansas City Center
07:41PM 39.1611 -99.7653 82° East 503 579 33,000  Level Kansas City Center
07:42PM 39.1808 -99.5942 81° East 503 579 33,000  Level Kansas City Center
07:43PM 39.1983 -99.4056 83° East 503 579 33,000  Level Kansas City Center
07:49PM 39.2966 -98.4266 83° East 507 583 33,000  Level FlightAware ADS-B
07:49PM 39.3054 -98.3334 83° East 508 585 33,000  Level FlightAware ADS-B
07:50PM 39.3140 -98.2417 83° East 510 587 33,000  Level FlightAware ADS-B
07:50PM 39.3224 -98.1508 83° East 512 589 33,000  Level FlightAware ADS-B
07:51PM 39.3355 -98.0075 83° East 512 589 33,000  Level FlightAware ADS-B
07:52PM 39.3461 -97.8905 83° East 513 590 33,000  Level FlightAware ADS-B
07:52PM 39.3576 -97.7609 83° East 512 589 33,000  Level FlightAware ADS-B
07:53PM 39.3658 -97.6694 83° East 511 588 33,000  Level FlightAware ADS-B
07:53PM 39.3738 -97.5774 84° East 510 587 33,000  Level FlightAware ADS-B
07:54PM 39.3817 -97.4862 84° East 503 579 33,000  Level FlightAware ADS-B
07:54PM 39.3894 -97.3962 84° East 502 578 33,000  Level FlightAware ADS-B
07:55PM 39.3970 -97.3068 84° East 502 578 33,000  Level FlightAware ADS-B
07:55PM 39.4048 -97.2129 84° East 504 580 33,000  Level FlightAware ADS-B
07:56PM 39.4124 -97.1216 84° East 504 580 33,000  Level FlightAware ADS-B
07:57PM 39.4242 -96.9788 84° East 505 581 33,000  Level FlightAware ADS-B
07:57PM 39.4316 -96.8871 84° East 505 581 33,000  Level FlightAware ADS-B
07:58PM 39.4389 -96.7970 84° East 506 582 33,000  Level FlightAware ADS-B
07:58PM 39.4461 -96.7068 84° East 506 582 33,000  Level FlightAware ADS-B
07:59PM 39.4532 -96.6155 84° East 506 582 33,000  Level FlightAware ADS-B
07:59PM 39.4605 -96.5220 84° East 507 583 33,000  Level FlightAware ADS-B
08:00PM 39.4676 -96.4301 84° East 508 585 33,000  Level FlightAware ADS-B
08:00PM 39.4745 -96.3397 84° East 508 585 33,000  Level FlightAware ADS-B
08:01PM 39.4815 -96.2475 84° East 507 583 33,000  Level FlightAware ADS-B
08:01PM 39.4884 -96.1539 85° East 502 578 33,000  Level FlightAware ADS-B
08:02PM 39.4952 -96.0637 84° East 499 574 33,000  Level FlightAware ADS-B
08:02PM 39.5006 -95.9943 84° East 497 572 33,000  Level FlightAware ADS-B
08:03PM 39.5138 -95.8733 82° East 495 570 33,000  Level FlightAware ADS-B
08:03PM 39.5255 -95.7653 82° East 497 572 33,000  Level FlightAware ADS-B
08:04PM 39.5349 -95.6770 82° East 497 572 33,000  Level FlightAware ADS-B
08:04PM 39.5443 -95.5887 82° East 497 572 33,000  Level FlightAware ADS-B
08:05PM 39.5537 -95.4999 82° East 497 572 33,000  Level FlightAware ADS-B
08:05PM 39.5632 -95.4096 82° East 496 571 33,000  Level FlightAware ADS-B
08:06PM 39.5726 -95.3199 82° East 495 570 33,000  Level FlightAware ADS-B
08:06PM 39.5818 -95.2304 82° East 495 570 33,000 295 Level FlightAware ADS-B
08:07PM 39.5908 -95.1422 82° East 494 568 33,300 677 Climbing FlightAware ADS-B
08:07PM 39.6003 -95.0490 82° East 491 565 33,700 677 Climbing FlightAware ADS-B
08:08PM 39.6090 -94.9620 83° East 487 560 34,000 429 Climbing FlightAware ADS-B
08:09PM 39.6208 -94.8441 83° East 489 563 34,200 423 Climbing FlightAware ADS-B
08:09PM 39.6295 -94.7569 83° East 485 558 34,500 677 Climbing FlightAware ADS-B
08:10PM 39.6382 -94.6679 83° East 481 554 34,900 448 Climbing FlightAware ADS-B
08:10PM 39.6484 -94.5637 83° East 480 552 35,000 91 Climbing FlightAware ADS-B
08:11PM 39.6566 -94.4778 83° East 478 550 35,000  Level FlightAware ADS-B
08:11PM 39.6656 -94.3837 83° East 477 549 35,000  Level FlightAware ADS-B
08:12PM 39.6738 -94.2982 83° East 478 550 35,000  Level FlightAware ADS-B
08:12PM 39.6820 -94.2115 83° East 477 549 35,000  Level FlightAware ADS-B
08:13PM 39.6900 -94.1251 83° East 477 549 35,000  Level FlightAware ADS-B
08:13PM 39.6982 -94.0367 83° East 478 550 35,000  Level FlightAware ADS-B
08:14PM 39.7061 -93.9512 83° East 478 550 35,000  Level FlightAware ADS-B
08:14PM 39.7139 -93.8648 83° East 478 550 35,000  Level FlightAware ADS-B
08:15PM 39.7218 -93.7784 83° East 477 549 35,000  Level FlightAware ADS-B
08:15PM 39.7295 -93.6920 83° East 476 548 35,000  Level FlightAware ADS-B
08:16PM 39.7373 -93.6041 83° East 475 547 35,000  Level FlightAware ADS-B
08:16PM 39.7448 -93.5186 83° East 477 549 35,000  Level FlightAware ADS-B
08:17PM 39.7524 -93.4303 84° East 477 549 35,000  Level FlightAware ADS-B
08:17PM 39.7598 -93.3449 84° East 478 550 35,000  Level FlightAware ADS-B
08:18PM 39.7673 -93.2589 83° East 478 550 35,000  Level FlightAware ADS-B
08:19PM 39.7783 -93.1389 83° East 478 550 35,000  Level Chicago Center
08:19PM 39.7867 -93.0400 84° East 475 547 35,000  Level Kansas City Center
08:20PM 39.8036 -92.8356 84° East 479 551 35,000  Level Kansas City Center
08:21PM 39.8169 -92.6692 84° East 471 542 35,000  Level Kansas City Center
08:22PM 39.8300 -92.4986 84° East 478 550 35,000  Level Kansas City Center
08:24PM 39.8431 -92.3311 84° East 476 548 35,000  Level Kansas City Center
08:25PM 39.8589 -92.1269 84° East 478 550 35,000  Level Kansas City Center
08:26PM 39.8711 -91.9578 85° East 477 549 35,000  Level Kansas City Center
08:27PM 39.8833 -91.7922 84° East 469 540 35,000  Level Kansas City Center
08:28PM 39.8947 -91.6264 85° East 466 536 35,000  Level Kansas City Center
08:29PM 39.9069 -91.4606 84° East 465 535 35,000  Level Kansas City Center
08:34PM 39.9656 -90.5717 84° East 463 533 35,000  Level FlightAware ADS-B
08:36PM 39.9926 -90.1212 85° East 459 528 35,000  Level FlightAware ADS-B
08:39PM 40.0149 -89.7277 86° East 474 545 35,000  Level FlightAware ADS-B
08:40PM 40.0256 -89.5291 86° East 470 541 35,000  Level FlightAware ADS-B
08:41PM 40.0309 -89.4280 86° East 469 540 35,000  Level FlightAware ADS-B
08:43PM 40.0470 -89.1083 86° East 474 545 35,000  Level FlightAware ADS-B
08:44PM 40.0538 -88.9691 86° East 475 547 35,000  Level FlightAware ADS-B
08:45PM 40.0682 -88.6621 86° East 482 555 35,000  Level FlightAware ADS-B
08:46PM 40.0732 -88.5483 87° East 484 557 35,000  Level FlightAware ADS-B
08:46PM 40.0779 -88.4412 87° East 488 562 35,000  Level FlightAware ADS-B
08:47PM 40.0853 -88.3105 86° East 488 562 35,000  Level FlightAware ADS-B
08:48PM 40.0912 -88.2242 85° East 487 560 35,000  Level FlightAware ADS-B
08:49PM 40.1034 -88.0357 85° East 489 563 35,000  Level FlightAware ADS-B
08:49PM 40.1110 -87.9177 85° East 491 565 35,000  Level FlightAware ADS-B
08:50PM 40.1187 -87.7935 85° East 493 567 35,000  Level FlightAware ADS-B
08:51PM 40.1258 -87.6743 85° East 493 567 35,000  Level FlightAware ADS-B
08:51PM 40.1329 -87.5561 85° East 494 568 35,000  Level FlightAware ADS-B
08:52PM 40.1411 -87.4185 86° East 493 567 35,000  Level FlightAware ADS-B
08:53PM 40.1472 -87.3098 86° East 493 567 35,000  Level FlightAware ADS-B
08:53PM 40.1537 -87.1959 86° East 493 567 35,000  Level FlightAware ADS-B
08:54PM 40.1602 -87.0791 86° East 494 568 35,000  Level FlightAware ADS-B
08:55PM 40.1678 -86.9399 86° East 496 571 35,000  Level FlightAware ADS-B
08:55PM 40.1729 -86.8462 86° East 497 572 35,000  Level FlightAware ADS-B
08:56PM 40.1790 -86.7299 86° East 498 573 35,000  Level FlightAware ADS-B
08:57PM 40.1802 -86.7063 86° East 500 575 35,000  Level FlightAware ADS-B
09:01PM 40.2209 -85.8587 86° East 501 577 35,000  Level FlightAware ADS-B
09:02PM 40.2281 -85.6967 87° East 508 585 35,000  Level FlightAware ADS-B
09:02PM 40.2317 -85.6219 87° East 502 578 35,000  Level Chicago Center
09:03PM 40.2408 -85.4386 86° East 504 580 35,000  Level Chicago Center
09:04PM 40.2492 -85.2547 87° East 506 582 35,000  Level Chicago Center
09:05PM 40.2553 -85.0725 87° East 505 581 35,000  Level Chicago Center
09:06PM 40.2639 -84.8883 86° East 507 583 35,000  Level Chicago Center
09:07PM 40.2714 -84.6689 87° East 505 581 35,000  Level Chicago Center
09:08PM 40.2778 -84.4861 87° East 504 580 35,000  Level Chicago Center
09:09PM 40.2797 -84.3056 89° East 506 582 35,000  Level Chicago Center
09:10PM 40.2850 -84.1194 88° East 512 589 35,000  Level Chicago Center
09:11PM 40.2917 -83.9344 87° East 512 589 35,000  Level Chicago Center
09:12PM 40.2958 -83.7492 88° East 512 589 35,000  Level Chicago Center
09:13PM 40.2997 -83.5631 88° East 513 590 35,000  Level Chicago Center
09:15PM 40.3061 -83.3136 88° East 515 593 35,000  Level Indianapolis Center
09:16PM 40.3094 -83.1231 89° East 519 597 35,000  Level Indianapolis Center
09:20PM 40.3232 -82.3225 89° East 35,000  Level FlightAware ADS-B
09:22PM 40.3282 -81.8935 89° East 532 612 35,000  Level FlightAware ADS-B
09:23PM 40.3302 -81.6604 89° East 536 617 35,000  Level FlightAware ADS-B
09:24PM 40.3300 -81.5553 89° East 534 615 35,000  Level Indianapolis Center
09:25PM 40.3308 -81.3589 90° East 535 616 35,000  Level Indianapolis Center
09:31PM 40.3321 -80.2558 90° East 548 631 35,000  Level FlightAware ADS-B
09:31PM 40.3314 -80.1140 90° East 549 632 35,000  Level FlightAware ADS-B
09:33PM 40.3292 -79.8195 90° East 551 634 35,000  Level FlightAware ADS-B
09:34PM 40.3268 -79.5721 91° East 553 636 35,000  Level FlightAware ADS-B
09:36PM 40.3200 -79.0490 91° East 558 642 35,000  Level FlightAware ADS-B (KWWD)
09:37PM 40.3193 -79.0017 91° East 558 642 35,000  Level FlightAware ADS-B (KWWD)
09:37PM 40.3196 -79.0226 271° West 559 643 35,000 -585 Level FlightAware ADS-B
09:37PM 40.3170 -78.8650 91° East 559 643 34,600 -779 Descending FlightAware ADS-B (KWWD)
09:38PM 40.3161 -78.7212 90° East 562 647 34,000 -1,139 Descending FlightAware ADS-B (KWWD)
09:39PM 40.3162 -78.5990 90° East 548 631 33,100 -2,165 Descending FlightAware ADS-B (KWWD)
09:40PM 40.3155 -78.4009 90° East 548 631 30,500 -2,614 Descending FlightAware ADS-B (KWWD)
09:40PM 40.3150 -78.2748 90° East 514 592 28,700 -2,471 Descending FlightAware ADS-B (KWWD)
09:41PM 40.3142 -78.1391 90° East 504 580 27,000 -2,250 Descending FlightAware ADS-B (KWWD)
09:42PM 40.3134 -78.0310 91° East 492 566 25,700 -1,138 Descending FlightAware ADS-B (KWWD)
09:44PM 40.2920 -77.5560 93° East 482 555 23,300 -928 Descending FlightAware ADS-B (KWWD)
09:45PM 40.2769 -77.4176 98° East 490 564 22,500 -966 Descending FlightAware ADS-B (KWWD)
09:46PM 40.2643 -77.3019 98° East 482 555 21,900 -975 Descending FlightAware ADS-B (KWWD)
09:46PM 40.2518 -77.1874 98° East 469 540 21,200 -975 Descending FlightAware ADS-B (KWWD)
09:47PM 40.2394 -77.0786 98° East 468 539 20,600 -975 Descending FlightAware ADS-B (KWWD)
09:48PM 40.2264 -76.9626 98° East 469 540 19,900 -1,650 Descending FlightAware ADS-B (KWWD)
09:48PM 40.2139 -76.8539 99° East 466 536 18,400 -2,700 Descending FlightAware ADS-B (KWWD)
09:49PM 40.2009 -76.7393 98° East 460 529 16,300 -2,815 Descending FlightAware ADS-B (KWWD)
09:50PM 40.1884 -76.6312 99° East 449 517 14,600 -2,430 Descending FlightAware ADS-B (KWWD)
09:50PM 40.1800 -76.5595 99° East 431 496 13,100 -2,268 Descending FlightAware ADS-B
09:51PM 40.1641 -76.4221 99° East 419 482 11,500 -1,769 Descending FlightAware ADS-B
09:52PM 40.1641 -76.4221 99° East 389 448 10,800 -816 Descending FlightAware ADS-B
09:53PM 40.1351 -76.1807 99° East 378 435 10,100 -488 Descending FlightAware ADS-B (KWWD)
09:54PM 40.1210 -76.0641 99° East 329 379 9,800 -320 Descending FlightAware ADS-B (KWWD)
09:54PM 40.1163 -76.0253 99° East 315 362 9,700 -300 Descending FlightAware ADS-B (KWWD)
09:54PM 40.1118 -75.9882 99° East 301 346 9,600 -474 Descending FlightAware ADS-B (KWWD)
09:55PM 40.1080 -75.9574 99° East 298 343 9,400 -811 Descending FlightAware ADS-B (KWWD)
09:55PM 40.1036 -75.9225 99° East 287 330 9,100 -1,143 Descending FlightAware ADS-B (KWWD)
09:55PM 40.0989 -75.8840 99° East 276 318 8,600 -1,571 Descending FlightAware ADS-B (KWWD)
09:56PM 40.0951 -75.8529 99° East 276 318 8,000 -1,459 Descending FlightAware ADS-B (KWWD)
09:56PM 40.0914 -75.8233 99° East 274 315 7,700 -600 Descending FlightAware ADS-B (KWWD)
09:56PM 40.0865 -75.7869 100° East 273 314 7,600 -419 Descending FlightAware ADS-B (KWWD)
09:57PM 40.0719 -75.7593 124° Southeast 265 305 7,400 -900 Descending FlightAware ADS-B (KWWD)
09:57PM 40.0532 -75.7422 145° Southeast 252 290 7,000 -1,171 Descending FlightAware ADS-B (KWWD)
09:57PM 40.0308 -75.7228 147° Southeast 251 289 6,600 -1,317 Descending FlightAware ADS-B (KWWD)
09:58PM 40.0126 -75.7070 146° Southeast 250 288 6,100 -1,105 Descending FlightAware ADS-B (KWWD)
09:58PM 39.9946 -75.6913 146° Southeast 239 275 5,900 -600 Descending FlightAware ADS-B (KWWD)
09:58PM 39.9756 -75.6748 146° Southeast 220 253 5,700 -429 Descending FlightAware ADS-B (KWWD)
09:59PM 39.9583 -75.6595 146° Southeast 212 244 5,600 -143 Descending FlightAware ADS-B (KWWD)
09:59PM 39.9420 -75.6451 146° Southeast 196 226 5,600 -146 Level FlightAware ADS-B (KWWD)
09:59PM 39.9268 -75.6315 146° Southeast 193 222 5,500 -732 Descending FlightAware ADS-B (KWWD)
10:00PM 39.9126 -75.6187 145° Southeast 164 189 5,100 -1,200 Descending FlightAware ADS-B (KWWD)
10:00PM 39.9006 -75.6076 145° Southeast 163 188 4,700 -1,231 Descending FlightAware ADS-B (KWWD)
10:00PM 39.8887 -75.5955 142° Southeast 160 184 4,300 -1,200 Descending FlightAware ADS-B (KWWD)
10:01PM 39.8796 -75.5802 128° Southeast 160 184 3,900 -900 Descending FlightAware ADS-B (KWWD)
10:01PM 39.8714 -75.5661 127° Southeast 146 168 3,700 -462 Descending FlightAware ADS-B (KWWD)
10:01PM 39.8629 -75.5512 126° Southeast 143 165 3,600 -450 Descending FlightAware ADS-B (KWWD)
10:02PM 39.8550 -75.5373 127° Southeast 141 162 3,400 -1,024 Descending FlightAware ADS-B (KWWD)
10:02PM 39.8471 -75.5238 127° Southeast 141 162 2,900 -1,077 Descending FlightAware ADS-B (KWWD)
10:02PM 39.8395 -75.5104 127° Southeast 136 157 2,700 -308 Descending FlightAware ADS-B (KWWD)
10:03PM 39.8319 -75.4968 126° Southeast 143 165 2,700 -146 Level FlightAware ADS-B (KWWD)
10:03PM 39.8239 -75.4828 127° Southeast 132 152 2,600 -214 Descending FlightAware ADS-B (KWWD)
10:03PM 39.8236 -75.4821 119° Southeast 139 160 2,600 300 Level FlightAware ADS-B
10:03PM 39.8229 -75.4659 93° East 145 167 2,700  Climbing FlightAware ADS-B (KWWD)
10:04PM 39.8261 -75.4492 76° East 148 170 2,600 -615 Descending FlightAware ADS-B (KWWD)
10:04PM 39.8293 -75.4327 76° East 142 163 2,300 -878 Descending FlightAware ADS-B (KWWD)
10:04PM 39.8327 -75.4156 76° East 133 153 2,000 -857 Descending FlightAware ADS-B (KWWD)
10:05PM 39.8346 -75.4061 75° East 131 151 1,700 -750 Descending FlightAware ADS-B
10:05PM 39.8398 -75.3802 75° East 133 153 1,400 -273 Descending FlightAware ADS-B
10:06PM 39.8500 -75.3500 75° East 132 152 1,400 -490 Level Philadelphia TRACON
10:07PM 39.8500 -75.3000 90° East 131 151 600 -800 Descending Philadelphia TRACON

Login

Don't have an account? Register now (free) for customized features, flight alerts, and more!